Flight Track Log - Related Links

Times and Time Zones

All times are in EDT time to prevent confusion due to time zone crossing. See the UAL582 flight status page for this flight to view local times or setup timezone preferences in your user account.

Time Position Orientation Groundspeed Altitude Reporting Facility
EDT Latitude Longitude Course Direction KTS MPH feet Rate Location/Type
Sun 09:48:21 PM 42.0000 -87.9500 304° West 165 190 2,000  Level Chicago TRACON
Sun 09:49:21 PM 42.0333 -88.0167 304° West 221 254 3,500 1,788 Climbing Chicago TRACON
Sun 09:50:52 PM 42.0358 -88.1442 272° West 271 312 6,500 2,526 Climbing Chicago Center
Sun 09:51:53 PM 42.0036 -88.2669 251° West 292 336 9,900 2,146 Climbing Chicago Center
Sun 09:52:55 PM 41.9700 -88.3775 248° West 319 367 10,900 1,268 Climbing Chicago Center
Sun 09:53:56 PM 41.9303 -88.5139 249° West 384 442 12,500 1,756 Climbing Chicago Center
Sun 09:54:58 PM 41.8978 -88.6589 253° West 406 467 14,500 1,756 Climbing Chicago Center
Sun 09:55:59 PM 41.8886 -88.8139 266° West 420 483 16,100 1,672 Climbing Chicago Center
Sun 09:57:00 PM 41.8778 -88.9767 265° West 439 505 17,900 1,659 Climbing Chicago Center
Sun 09:58:02 PM 41.8639 -89.1372 263° West 439 505 19,500 1,561 Climbing Chicago Center
Sun 09:59:03 PM 41.8497 -89.3386 265° West 454 522 21,100 1,377 Climbing Chicago Center
Sun 10:00:04 PM 41.8375 -89.5081 265° West 460 529 22,300 1,171 Climbing Chicago Center
Sun 10:01:06 PM 41.8194 -89.6803 264° West 468 539 23,500 1,024 Climbing Chicago Center
Sun 10:02:07 PM 41.7961 -89.8447 259° West 476 548 24,400 885 Climbing Chicago Center
Sun 10:03:08 PM 41.7706 -90.0200 259° West 481 554 25,300 927 Climbing Chicago Center
Sun 10:04:10 PM 41.7433 -90.1989 259° West 490 564 26,300 1,268 Climbing Chicago Center
Sun 10:05:11 PM 41.7094 -90.4150 258° West 496 571 27,900 1,426 Climbing Chicago Center
Sun 10:06:12 PM 41.6836 -90.5900 259° West 486 559 29,200 1,317 Climbing Chicago Center
Sun 10:07:14 PM 41.6539 -90.7717 258° West 475 547 30,600 1,220 Climbing Chicago Center
Sun 10:08:15 PM 41.6272 -90.9406 258° West 469 540 31,700 1,033 Climbing Chicago Center
Sun 10:09:16 PM 41.6014 -91.1083 258° West 465 535 32,700 976 Climbing Chicago Center
Sun 10:10:18 PM 41.5747 -91.2744 258° West 461 531 33,700 927 Climbing Chicago Center
Sun 10:11:19 PM 41.5475 -91.4411 258° West 462 532 34,600 639 Climbing Chicago Center
Sun 10:12:20 PM 41.5217 -91.6008 258° West 449 517 35,000 146 Climbing Chicago Center
Sun 10:13:22 PM 41.4819 -91.7528 251° West 439 505 34,900 -439 Descending Chicago Center
Sun 10:14:23 PM 41.4417 -91.9092 251° West 447 514 34,100 -443 Descending Chicago Center
Sun 10:15:24 PM 41.3906 -92.0997 250° West 456 525 34,000 -49 Descending Chicago Center
Sun 10:16:26 PM 41.3489 -92.2542 250° West 450 518 34,000  Level Chicago Center
Sun 10:17:27 PM 41.3042 -92.4200 250° West 450 518 34,000  Level Chicago Center
Sun 10:18:28 PM 41.2622 -92.5739 250° West 449 517 34,000  Level Chicago Center
Sun 10:19:23 PM 41.2289 -92.7006 251° West 453 521 34,000  Level Minneapolis Center
Sun 10:20:24 PM 41.1861 -92.8550 250° West 453 521 34,000  Level Minneapolis Center
Sun 10:21:25 PM 41.1344 -93.0394 250° West 450 518 34,000  Level Minneapolis Center
Sun 10:22:26 PM 41.0925 -93.1922 250° West 449 517 34,000  Level Minneapolis Center
Sun 10:23:27 PM 41.0506 -93.3422 250° West 443 510 34,000  Level Minneapolis Center
Sun 10:24:29 PM 41.0075 -93.4964 250° West 449 517 34,000 98 Level Minneapolis Center
Sun 10:25:30 PM 40.9628 -93.6500 249° West 453 521 34,200 393 Climbing Minneapolis Center
Sun 10:26:31 PM 40.9203 -93.8022 250° West 450 518 34,800 590 Climbing Minneapolis Center
Sun 10:27:32 PM 40.8761 -93.9553 249° West 450 518 35,400 590 Climbing Minneapolis Center
Sun 10:28:33 PM 40.8214 -94.1394 249° West 452 520 36,000 295 Climbing Minneapolis Center
Sun 10:29:34 PM 40.7769 -94.2925 249° West 452 520 36,000  Level Minneapolis Center
Sun 10:30:47 PM 40.7325 -94.4444 249° West 450 518 36,000  Level Minneapolis Center
Sun 10:31:48 PM 40.6817 -94.6147 249° West 447 514 36,000  Level Minneapolis Center
Sun 10:32:49 PM 40.6367 -94.7672 249° West 445 512 36,000  Level Minneapolis Center
Sun 10:33:50 PM 40.5936 -94.9164 249° West 440 506 36,000  Level Minneapolis Center
Sun 10:34:51 PM 40.5389 -95.0989 249° West 443 510 36,000  Level Minneapolis Center
Sun 10:35:52 PM 40.4939 -95.2489 249° West 441 507 36,000  Level Minneapolis Center
Sun 10:36:53 PM 40.4486 -95.3978 248° West 439 505 36,000  Level Minneapolis Center
Sun 10:37:54 PM 40.4042 -95.5467 249° West 438 504 36,000  Level Minneapolis Center
Sun 10:38:55 PM 40.3572 -95.7003 248° West 444 511 36,000  Level Minneapolis Center
Sun 10:39:56 PM 40.3108 -95.8497 248° West 444 511 36,000  Level Minneapolis Center
Sun 10:40:57 PM 40.2644 -95.9992 248° West 444 511 36,000  Level Minneapolis Center
Sun 10:41:58 PM 40.2183 -96.1503 248° West 444 511 36,000  Level Minneapolis Center
Sun 10:42:59 PM 40.1875 -96.3067 256° West 446 513 36,000  Level Minneapolis Center
Sun 10:44:00 PM 40.1672 -96.4683 261° West 448 516 36,000  Level Minneapolis Center
Sun 10:45:01 PM 40.1481 -96.6275 261° West 446 513 36,000  Level Minneapolis Center
Sun 10:46:02 PM 40.1278 -96.7856 261° West 443 510 36,000  Level Minneapolis Center
Sun 10:47:03 PM 40.1072 -96.9406 260° West 438 504 36,000  Level Minneapolis Center
Sun 10:48:04 PM 40.0878 -97.0914 260° West 424 488 36,000  Level Minneapolis Center
Sun 10:49:05 PM 40.0683 -97.2442 261° West 425 489 36,000  Level Minneapolis Center
Sun 10:50:06 PM 40.0425 -97.4300 260° West 436 502 36,000  Level Minneapolis Center
Sun 10:51:07 PM 40.0228 -97.5872 261° West 438 504 36,000  Level Minneapolis Center
Sun 10:52:08 PM 39.9994 -97.7450 259° West 440 506 36,000  Level Minneapolis Center
Sun 10:53:09 PM 39.9792 -97.9011 260° West 438 504 36,000  Level Minneapolis Center
Sun 10:54:10 PM 39.9569 -98.0547 259° West 434 499 36,000  Level Minneapolis Center
Sun 10:55:11 PM 39.9361 -98.2067 260° West 429 494 36,000  Level Minneapolis Center
Sun 10:56:12 PM 39.9139 -98.3578 259° West 427 491 36,000 -49 Level Minneapolis Center
Sun 10:57:13 PM 39.8933 -98.5044 260° West 422 486 35,900  Descending Minneapolis Center
Sun 10:58:14 PM 39.8731 -98.6500 260° West 417 480 36,000 49 Climbing Minneapolis Center
Sun 10:59:15 PM 39.8519 -98.7950 259° West 412 474 36,000  Level Minneapolis Center
Sun 10:59:58 PM 39.8342 -98.9089 259° West 408 470 36,000  Level Denver Center
Sun 11:01:00 PM 39.8125 -99.0561 259° West 413 475 36,000  Level Denver Center
Sun 11:02:01 PM 39.7906 -99.2056 259° West 419 482 36,000 49 Level Denver Center
Sun 11:03:02 PM 39.7681 -99.3528 259° West 416 479 36,100  Climbing Denver Center
Sun 11:04:04 PM 39.7458 -99.5014 259° West 417 480 36,000 -49 Descending Denver Center
Sun 11:05:05 PM 39.7225 -99.6489 258° West 415 478 36,000  Level Denver Center
Sun 11:06:07 PM 39.7003 -99.7975 259° West 417 480 36,000  Level Denver Center
Sun 11:07:08 PM 39.6761 -99.9464 258° West 421 484 36,000  Level Denver Center
Sun 11:08:09 PM 39.6500 -100.1111 258° West 419 482 36,000  Level Denver Center
Sun 11:09:11 PM 39.6286 -100.2497 259° West 413 475 36,000  Level Denver Center
Sun 11:10:24 PM 39.6019 -100.4139 258° West 414 476 36,000  Level Denver Center
Sun 11:11:26 PM 39.5758 -100.5772 258° West 414 476 36,000  Level Denver Center
Sun 11:12:27 PM 39.5489 -100.7381 258° West 409 471 36,000  Level Denver Center
Sun 11:13:28 PM 39.5267 -100.8767 258° West 410 472 36,000  Level Denver Center
Sun 11:14:30 PM 39.5033 -101.0172 258° West 415 478 36,000  Level Denver Center
Sun 11:15:31 PM 39.4758 -101.1808 258° West 415 478 36,000  Level Denver Center
Sun 11:16:32 PM 39.4519 -101.3217 258° West 418 481 36,000  Level Denver Center
Sun 11:17:33 PM 39.4239 -101.4850 258° West 416 479 36,000  Level Denver Center
Sun 11:18:35 PM 39.3994 -101.6242 257° West 414 476 36,000  Level Denver Center
Sun 11:19:36 PM 39.3764 -101.7656 258° West 419 482 36,000  Level Denver Center
Sun 11:20:49 PM 39.3528 -101.9278 259° West 414 476 36,000  Level Denver Center
Sun 11:21:51 PM 39.3264 -102.0922 258° West 416 479 36,000  Level Denver Center
Sun 11:22:52 PM 39.3019 -102.2519 259° West 409 471 36,000  Level Denver Center
Sun 11:23:53 PM 39.2806 -102.3906 259° West 411 473 36,000  Level Denver Center
Sun 11:24:54 PM 39.2544 -102.5542 258° West 416 479 36,000  Level Denver Center
Sun 11:25:56 PM 39.2331 -102.6950 259° West 417 480 36,000 49 Level Denver Center
Sun 11:26:57 PM 39.2111 -102.8356 259° West 417 480 36,100  Climbing Denver Center
Sun 11:27:58 PM 39.1869 -102.9819 258° West 415 478 36,000 -49 Descending Denver Center
Sun 11:28:59 PM 39.1631 -103.1275 258° West 412 474 36,000  Level Denver Center
Sun 11:30:00 PM 39.1394 -103.2714 258° West 408 470 36,000  Level Denver Center
Sun 11:31:02 PM 39.1153 -103.4161 258° West 409 471 36,000  Level Denver Center
Sun 11:32:03 PM 39.0919 -103.5625 258° West 412 474 36,000 49 Level Denver Center
Sun 11:33:04 PM 39.0669 -103.7075 258° West 413 475 36,100  Climbing Denver Center
Sun 11:34:05 PM 39.0383 -103.8758 258° West 409 471 36,000 -49 Descending Denver Center
Sun 11:35:06 PM 39.0142 -104.0197 258° West 407 468 36,000  Level Denver Center
Sun 11:36:08 PM 38.9892 -104.1642 257° West 409 471 36,000  Level Denver Center
Sun 11:37:09 PM 38.9639 -104.3083 257° West 409 471 36,000  Level Denver Center
Sun 11:38:10 PM 38.9389 -104.4558 258° West 415 478 36,000  Level Denver Center
Sun 11:39:11 PM 38.9106 -104.6050 256° West 424 488 36,000  Level Denver Center
Sun 11:40:12 PM 38.8847 -104.7517 257° West 418 481 36,000  Level Denver Center
Sun 11:41:13 PM 38.8589 -104.9003 257° West 420 483 36,000  Level Denver Center
Sun 11:42:14 PM 38.8319 -105.0486 257° West 421 484 36,000  Level Denver Center
Sun 11:43:16 PM 38.8047 -105.1986 257° West 425 489 36,000  Level Denver Center
Sun 11:44:17 PM 38.7778 -105.3500 257° West 430 495 36,000  Level Denver Center
Sun 11:45:18 PM 38.7492 -105.4992 256° West 427 491 36,000  Level Denver Center
Sun 11:46:19 PM 38.7211 -105.6481 256° West 427 491 36,000  Level Denver Center
Sun 11:47:20 PM 38.6925 -105.7961 256° West 426 490 36,000  Level Denver Center
Sun 11:48:21 PM 38.6661 -105.9411 257° West 416 479 36,000  Level Denver Center
Sun 11:49:22 PM 38.6383 -106.0858 256° West 417 480 36,000  Level Denver Center
Sun 11:50:24 PM 38.6125 -106.2231 256° West 415 478 36,000  Level Denver Center
Sun 11:51:25 PM 38.5853 -106.3656 256° West 413 475 36,000  Level Denver Center
Sun 11:52:26 PM 38.5572 -106.5086 256° West 414 476 36,000  Level Denver Center
Sun 11:53:27 PM 38.5289 -106.6525 256° West 414 476 36,000  Level Denver Center
Sun 11:54:28 PM 38.5003 -106.7958 256° West 414 476 36,000  Level Denver Center
Sun 11:55:29 PM 38.4708 -106.9386 255° West 415 478 36,000  Level Denver Center
Sun 11:56:30 PM 38.4339 -107.0783 251° West 411 473 36,000  Level Denver Center
Sun 11:57:31 PM 38.3717 -107.2186 241° Southwest 412 474 36,000 -49 Level Denver Center
Sun 11:58:33 PM 38.3103 -107.3597 241° Southwest 408 470 35,900  Descending Denver Center
Sun 11:59:34 PM 38.2556 -107.4819 240° Southwest 412 474 36,000 49 Climbing Denver Center
Mon 12:00:35 AM 38.2003 -107.6025 240° Southwest 412 474 36,000 49 Level Denver Center
Mon 12:01:36 AM 38.1361 -107.7453 240° Southwest 415 478 36,100  Climbing Denver Center
Mon 12:02:37 AM 38.0822 -107.8653 240° Southwest 409 471 36,000 -49 Descending Denver Center
Mon 12:03:38 AM 38.0225 -107.9958 240° Southwest 405 466 36,000  Level Denver Center
Mon 12:04:39 AM 37.9689 -108.1156 240° Southwest 407 468 36,000  Level Denver Center
Mon 12:05:40 AM 37.9239 -108.2114 239° Southwest 403 464 36,000  Level Denver Center
Mon 12:06:42 AM 37.8508 -108.3697 240° Southwest 405 466 36,000  Level Denver Center
Mon 12:07:43 AM 37.7969 -108.4883 240° Southwest 407 468 36,000  Level Denver Center
Mon 12:08:44 AM 37.7328 -108.6267 240° Southwest 408 470 36,000  Level Denver Center
Mon 12:09:45 AM 37.6789 -108.7450 240° Southwest 407 468 36,000  Level Denver Center
Mon 12:10:46 AM 37.6161 -108.8789 239° Southwest 400 460 36,000  Level Denver Center
Mon 12:11:47 AM 37.5611 -108.9933 239° Southwest 400 460 36,000  Level Denver Center
Mon 12:13:00 AM 37.5064 -109.1117 240° Southwest 407 468 36,000  Level Denver Center
Mon 12:14:01 AM 37.4322 -109.2669 239° Southwest 407 468 36,000  Level Denver Center
Mon 12:15:03 AM 37.3767 -109.3836 239° Southwest 408 470 36,000  Level Denver Center
Mon 12:16:04 AM 37.3111 -109.5214 239° Southwest 411 473 36,000 49 Level Denver Center
Mon 12:17:05 AM 37.2542 -109.6417 239° Southwest 417 480 36,100 49 Climbing Denver Center
Mon 12:18:06 AM 37.1969 -109.7594 239° Southwest 417 480 36,100 -49 Level Denver Center
Mon 12:19:07 AM 37.1322 -109.8967 239° Southwest 412 474 36,000 -49 Descending Denver Center
Mon 12:20:08 AM 37.0756 -110.0114 238° Southwest 408 470 36,000  Level Denver Center
Mon 12:21:09 AM 37.0089 -110.1494 239° Southwest 414 476 36,000  Level Denver Center
Mon 12:22:10 AM 36.9561 -110.2564 238° Southwest 413 475 36,000  Level Denver Center
Mon 12:23:11 AM 36.8958 -110.3811 239° Southwest 418 481 36,000  Level Denver Center
Mon 12:24:12 AM 36.8358 -110.5033 239° Southwest 415 478 36,000  Level Denver Center
Mon 12:25:13 AM 36.7631 -110.6508 238° Southwest 416 479 36,000  Level Denver Center
Mon 12:26:14 AM 36.7022 -110.7742 238° Southwest 417 480 36,000  Level Denver Center
Mon 12:27:15 AM 36.6428 -110.8978 239° Southwest 417 480 36,000  Level Denver Center
Mon 12:28:16 AM 36.5806 -111.0211 238° Southwest 419 482 36,000  Level Denver Center
Mon 12:29:17 AM 36.5175 -111.1464 238° Southwest 424 488 36,000  Level Denver Center
Mon 12:30:19 AM 36.4544 -111.2708 238° Southwest 425 489 36,000  Level Denver Center
Mon 12:31:20 AM 36.3917 -111.3953 238° Southwest 425 489 36,000  Level Denver Center
Mon 12:32:21 AM 36.3300 -111.5183 238° Southwest 422 486 36,000  Level Denver Center
Mon 12:33:22 AM 36.2678 -111.6419 238° Southwest 422 486 36,000  Level Denver Center
Mon 12:35:24 AM 36.1408 -111.8875 237° Southwest 424 488 36,000  Level Denver Center
Mon 12:35:43 AM 36.1142 -111.9375 237° Southwest 427 491 36,000  Level Los Angeles Center
Mon 12:36:45 AM 36.0483 -112.0683 238° Southwest 427 491 36,000  Level Los Angeles Center
Mon 12:37:46 AM 35.9853 -112.1886 237° Southwest 420 483 36,000  Level Los Angeles Center
Mon 12:38:47 AM 35.9233 -112.3092 238° Southwest 418 481 36,000  Level Los Angeles Center
Mon 12:39:49 AM 35.8600 -112.4311 237° Southwest 424 488 36,000  Level Los Angeles Center
Mon 12:40:50 AM 35.7967 -112.5536 238° Southwest 425 489 36,000  Level Los Angeles Center
Mon 12:41:52 AM 35.7331 -112.6758 237° Southwest 428 493 36,000  Level Los Angeles Center
Mon 12:42:53 AM 35.6567 -112.8189 237° Southwest 425 489 36,000  Level Los Angeles Center
Mon 12:43:54 AM 35.5931 -112.9403 237° Southwest 422 486 36,000  Level Los Angeles Center
Mon 12:44:56 AM 35.5228 -113.0742 237° Southwest 432 497 36,000  Level Los Angeles Center
Mon 12:45:57 AM 35.4578 -113.1956 237° Southwest 427 491 36,000  Level Los Angeles Center
Mon 12:47:10 AM 35.4031 -113.2989 237° Southwest 424 488 36,000  Level Los Angeles Center
Mon 12:48:12 AM 35.3133 -113.4661 237° Southwest 425 489 36,000  Level Los Angeles Center
Mon 12:49:13 AM 35.2486 -113.5872 237° Southwest 428 493 36,000  Level Los Angeles Center
Mon 12:50:15 AM 35.1842 -113.7083 237° Southwest 428 493 36,000  Level Los Angeles Center
Mon 12:51:28 AM 35.1189 -113.8272 236° Southwest 427 491 36,000  Level Los Angeles Center
Mon 12:52:30 AM 35.0397 -113.9731 236° Southwest 430 495 36,000  Level Los Angeles Center
Mon 12:53:31 AM 34.9728 -114.0953 236° Southwest 431 496 36,000  Level Los Angeles Center
Mon 12:54:32 AM 34.9194 -114.1936 237° Southwest 433 498 36,000  Level Los Angeles Center
Mon 12:55:33 AM 34.8256 -114.3644 236° Southwest 433 498 36,000 -146 Level Los Angeles Center
Mon 12:56:35 AM 34.7583 -114.4881 237° Southwest 438 504 35,700 -585 Descending Los Angeles Center
Mon 12:57:36 AM 34.7031 -114.6136 242° Southwest 426 490 34,800 -984 Descending Los Angeles Center
Mon 12:58:37 AM 34.6442 -114.7467 242° Southwest 428 493 33,700 -1,033 Descending Los Angeles Center
Mon 12:59:38 AM 34.5858 -114.8753 241° Southwest 436 502 32,700 -976 Descending Los Angeles Center
Mon 01:00:40 AM 34.5272 -115.0053 241° Southwest 438 504 31,700 -927 Descending Los Angeles Center
Mon 01:01:41 AM 34.4686 -115.1342 241° Southwest 439 505 30,800 -836 Descending Los Angeles Center
Mon 01:02:42 AM 34.4100 -115.2625 241° Southwest 436 502 30,000 -443 Descending Los Angeles Center
Mon 01:03:43 AM 34.3517 -115.3903 241° Southwest 436 502 29,900 -492 Descending Los Angeles Center
Mon 01:04:44 AM 34.2931 -115.5194 241° Southwest 438 504 29,000 -927 Descending Los Angeles Center
Mon 01:05:46 AM 34.2331 -115.6464 240° Southwest 438 504 28,000 -927 Descending Los Angeles Center
Mon 01:06:47 AM 34.1731 -115.7761 241° Southwest 441 507 27,100 -1,033 Descending Los Angeles Center
Mon 01:07:48 AM 34.1033 -115.9319 242° Southwest 441 507 25,900 -1,082 Descending Los Angeles Center
Mon 01:08:49 AM 34.0428 -116.0594 240° Southwest 440 506 24,900 -927 Descending Los Angeles Center
Mon 01:09:51 AM 33.9844 -116.1853 241° Southwest 435 501 24,000 -1,317 Descending Los Angeles Center
Mon 01:10:52 AM 33.9269 -116.3081 241° Southwest 427 491 22,200 -2,262 Descending Los Angeles Center
Mon 01:11:53 AM 33.8756 -116.4281 243° Southwest 414 476 19,400 -2,705 Descending Los Angeles Center
Mon 01:12:54 AM 33.8767 -116.5561 271° West 392 451 16,700 -2,098 Descending Los Angeles Center
Mon 01:13:56 AM 33.8831 -116.6850 273° West 389 448 15,100 -1,366 Descending Los Angeles Center
Mon 01:14:57 AM 33.8886 -116.8144 273° West 388 447 13,900 -639 Descending Los Angeles Center
Mon 01:15:58 AM 33.8639 -116.9353 256° West 385 443 13,800 -787 Descending Los Angeles Center
Mon 01:16:59 AM 33.8503 -117.0569 262° West 364 419 12,300 -1,672 Descending Los Angeles Center
Mon 01:18:00 AM 33.8319 -117.1856 260° West 331 381 10,400 -1,415 Descending Los Angeles Center
Mon 01:19:02 AM 33.8203 -117.2786 261° West 287 330 9,400 -1,171 Descending Los Angeles Center
Mon 01:20:03 AM 33.8083 -117.3678 261° West 274 315 8,000 -689 Descending Los Angeles Center
Mon 01:21:04 AM 33.7967 -117.4569 261° West 272 313 8,000  Level Los Angeles Center
Mon 01:22:05 AM 33.7894 -117.5289 263° West 225 259 8,000 -49 Level Los Angeles Center
Mon 01:23:06 AM 33.7800 -117.5975 261° West 208 239 7,900 -450 Descending Los Angeles Center
Mon 01:23:25 AM 33.7833 -117.6333 276° West 210 242 7,400 -1,553 Descending Southern California TRACON
Mon 01:24:31 AM 33.8167 -117.6833 309° West 224 258 5,700 -1,250 Descending Southern California TRACON
Mon 01:25:25 AM 33.8667 -117.7167 331° Northwest 182 209 4,900 -1,000 Descending Southern California TRACON
Mon 01:26:19 AM 33.8667 -117.7500 270° West 183 211 3,900 -842 Descending Southern California TRACON
Mon 01:27:19 AM 33.8333 -117.7667 203° Southwest 167 192 3,300 -714 Descending Southern California TRACON
Mon 01:28:25 AM 33.7833 -117.8000 209° Southwest 153 176 2,400 -803 Descending Southern California TRACON
Mon 01:29:26 AM 33.7500 -117.8167 203° Southwest 140 161 1,600 -744 Descending Southern California TRACON
Mon 01:30:26 AM 33.7167 -117.8333 203° Southwest 138 159 900 -750 Descending Southern California TRACON
Mon 01:31:26 AM 33.6833 -117.8667 220° Southwest 136 157 100 -800 Descending Southern California TRACON

Login

Don't have an account? Register now (free) for customized features, flight alerts, and more!